Tiempo atmosférico en la estación meteorológica de Puerto de Navacerrada, Madrid (1894 m.)



Fecha
DESCASC
Temp. máxima en grados centígrados (hora)
DESCASC
Temp. mínima en grados centígrados (hora)
DESCASC
Temp. media en grados centígrados
DESCASC
Racha de viento máxima en m/sg (hora)
DESCASC
Velocidad máxima media en intervalos de 10 minutos(hora)
DESCASC
Precipitaciones diarias en mm
DESCASC
Precipitaciones de 00:00 a 06:00 en mm
DESCASC
Precipitaciones de 06:00 a 12:00 en mm
DESCASC
Precipitaciones de 12:00 a 18:00 en mm
DESCASC
Precipitaciones de 18:00 a 24:00 en mm
DESCASC
10-10-2019 18.7 (16:40) 9.5 (02:00) 14.1 10.83 (13:10) 7.5 (23:30) 0 0 0 0 0
09-10-2019 17.6 (15:30) 9.6 (08:20) 13.6 10.28 (10:00) 4.72 (09:50) 0 0 0 0 0
08-10-2019 22.4 (15:20) 12.9 (00:20) 17.6 6.67 (11:00) 3.89 (11:00) 0 0 0 0 0
07-10-2019 18.7 (15:40) 9.1 (03:40) 13.9 11.94 (05:30) 7.22 (05:00) 0 0 0 0 0
06-10-2019 17.1 (15:00) 8.5 (00:00) 12.8 11.11 (22:10) 6.67 (22:10) 0 0 0 0 0
05-10-2019 19.3 (14:20) 9 (00:00) 14.1 6.67 (22:30) 4.17 (22:30) 0 0 0 0 0
04-10-2019 19.7 (13:10) 9.3 (00:00) 14.5 7.22 (15:20) 4.72 (09:10) 0 0 0 0 0
03-10-2019 16.2 (14:30) 6.3 (00:00) 11.3 8.89 (15:30) 5.28 (10:10) 0 0 0 0 0
02-10-2019 11.8 (15:30) 3.6 (00:00) 7.7 15.83 (01:30) 8.06 (03:50) 0 0 0 0 0
01-10-2019 14.5 (10:30) 8 (00:00) 11.3 14.72 (23:50) 6.11 (23:40) 0 0 0 0 0
30-09-2019 22 (15:00) 11.7 (00:00) 16.8 8.89 (10:10) 5.56 (19:10) 0 0 0 0 0
29-09-2019 21 (13:40) 12 (00:00) 16.5 9.17 (03:10) 6.11 (03:10) 0 0 0 0 0
28-09-2019 22 (16:30) 8.9 (00:00) 15.4 7.22 (08:40) 4.72 (21:10) 0 0 0 0 0
27-09-2019 18.9 (14:50) 10.4 (00:00) 14.6 7.78 (17:10) 3.89 (23:00) 0 0 0 0 0
26-09-2019 22 (16:20) 10.8 (00:00) 16.4 6.94 (17:40) 3.61 (13:50) 0 0 0 0 0
25-09-2019 15.7 (16:30) 5.5 (00:00) 10.6 11.39 (02:00) 6.39 (03:40) 0 0 0 0 0
24-09-2019 -- (--) -- (--) -- 12.22 (15:10) 6.67 (15:30) 0 0 0 0 0
23-09-2019 17 (13:50) 6 (00:00) 11.5 9.17 (22:40) 4.72 (08:00) 0 0 0 0 0
22-09-2019 11.4 (16:20) 6.4 (00:00) 8.9 16.11 (01:30) 10.28 (00:40) 7.8 5 2.8 0 0
21-09-2019 11.4 (00:50) 8.7 (00:00) 10 17.5 (22:20) 11.67 (21:40) 11.2 0.6 0 3 7.6
20-09-2019 16 (12:00) 8.9 (00:00) 12.4 17.78 (20:10) 10 (20:10) 19.4 0 0 0 19.4
19-09-2019 20.2 (14:40) 12.7 (00:00) 16.5 8.61 (14:00) 5.28 (23:10) 1.2 0 0 1.2 0
18-09-2019 18.5 (15:40) 10.7 (00:00) 14.6 12.22 (08:20) 6.39 (08:00) 0 0 0 0 0
17-09-2019 21.8 (14:30) 11.4 (00:00) 16.6 10.83 (20:30) 6.11 (18:50) 0 0 0 0 0
16-09-2019 19 (12:00) 10.4 (00:00) 14.7 10 (00:30) 6.67 (00:30) 2.2 0 0 2 0.2
15-09-2019 14 (17:30) 10 (00:00) 12 17.5 (09:10) 10 (09:20) 14.4 3.4 1.8 9.2 0
14-09-2019 15.1 (12:30) 8.5 (00:00) 11.8 18.89 (16:00) 10.56 (16:00) 7.6 1 0 3.8 2.8

Gráficas

Temp. máximas Temp. mínimas Temp. medias Precipitaciones Rachas de viento máximas Velocidades máximas media en intervalos de 10 minutos

Datos horarios

Fecha y hora oficial Temperatura (ºC) Velocidad del viento (km/h) Dirección del viento Racha (km/h) Dirección de racha Precipitación (mm) Presión (hPa) Tendencia (hPa) Humedad (%)
2019-10-13 23:00:00 10.9 19 Sur 51 Sur 0 812.4 0.2 67
2019-10-13 22:00:00 10.5 31 Sur 53 Sur 0 812.4 -0.1 69
2019-10-13 21:00:00 9.9 17 Sur 50 Sur 0 812.4 -0.3 73
2019-10-13 20:00:00 9.8 26 Sur 49 Sudeste 0 812.2 -0.5 75
2019-10-13 19:00:00 11.2 17 Sur 51 Sur 0 812.5 -0.2 68
2019-10-13 18:00:00 11.9 18 Sur 49 Sur 0 812.7 -0.3 68
2019-10-13 17:00:00 12.7 17 Sur 46 Sur 0 812.7 -0.4 66
2019-10-13 16:00:00 13.4 11 Oeste 40 Sur 0 812.7 -0.6 60
2019-10-13 15:00:00 12.9 20 Sur 49 Sur 0 813 -0.2 64
2019-10-13 14:00:00 12.4 14 Sur 48 Sur 0 813.1 0.3 72
2019-10-13 13:00:00 10.8 28 Sur 57 Sur 0 813.3 0.7 80
2019-10-13 12:00:00 9.5 21 Sur 48 Sur 0 813.2 1 89
2019-10-13 11:00:00 9 30 Sur 49 Sur 0 812.8 1.2 89
2019-10-13 10:00:00 8 28 Sur 53 Sur 0 812.6 1.4 96
2019-10-13 09:00:00 8.1 32 Sudoeste 63 Sudoeste 0 812.2 1.1 99
2019-10-13 08:00:00 8.3 35 Sudoeste 73 Sur 0 811.6 -0.3 99
2019-10-13 07:00:00 9.1 37 Sur 76 Sur 0 811.2 -1.2 100
2019-10-13 06:00:00 9.5 31 Sudeste 65 Sudeste 0 811.1 -1.6 99
2019-10-13 05:00:00 9.7 34 Sudeste 82 Sur 0 811.9 -1.1 99
2019-10-13 04:00:00 9.6 42 Sudeste 81 Sur 0 812.4 -1.3 97
2019-10-13 03:00:00 8.9 36 Sudeste 60 Sur 0 812.7 -1.5 82
2019-10-13 02:00:00 9.9 13 Sur 42 Sudoeste 0 813 -1.1 73
2019-10-13 01:00:00 10.1 12 Sur 46 Sudeste 0 813.7 -0.8 70
2019-10-13 00:00:00 9.8 31 Sudeste 52 Sudeste 0 814.2 0.1 74
2019-10-12 23:00:00 9.6 21 Sudeste 55 Sudeste 0 814.1 -0.2 73
2019-10-12 22:00:00 10 22 Sudeste 49 Sudeste 0 814.5 0.7 78
2019-10-12 21:00:00 10.3 15 Sudeste 33 Sudeste 1.2 814.1 0 82
2019-10-12 20:00:00 11.1 17 Oeste 43 Sudeste 2.4 814.3 0 75
2019-10-12 19:00:00 13 28 Sudeste 46 Sudeste 0 813.8 -0.9 66
2019-10-12 18:00:00 14 25 Sur 55 Sur 0 814.1 -0.9 63
2019-10-12 17:00:00 13.8 22 Sudeste 44 Sur 0 814.3 -1.3 67
2019-10-12 16:00:00 13.4 23 Sur 39 Sur 0 814.7 -1.2 68
2019-10-12 15:00:00 14 16 Sur 30 Sur 0 815 -0.9 65
2019-10-12 14:00:00 15.7 14 Sur 39 Sur 0 815.6 -0.1 52
2019-10-12 13:00:00 15.4 21 Sur 35 Sudoeste 0 815.9 0.9 50
2019-10-12 12:00:00 13.6 18 Sudoeste 41 Sur 0 815.9 1.1 59
2019-10-12 11:00:00 11.7 17 Sur 37 Sur 0 815.7 0.8 68
2019-10-12 10:00:00 11.3 12 Sur 36 Sudeste 0 815 0.1 71
2019-10-12 09:00:00 10.6 19 Sur 37 Sur 0 814.8 -0.3 83
2019-10-12 08:00:00 11.5 14 Sur 25 Sur 0 814.9 -0.3 80
2019-10-12 07:00:00 12 15 Sur 33 Sur 0 814.9 -0.8 69
2019-10-12 06:00:00 11.8 15 Sur 26 Sudeste 0 815.1 -0.8 72
2019-10-12 05:00:00 12 14 Sur 23 Sur 0 815.2 -1.1 77
2019-10-12 04:00:00 12.6 16 Sur 33 Sudoeste 0 815.7 -0.6 75
2019-10-12 03:00:00 12.7 18 Sur 37 Sur 0 815.9 -1 79
2019-10-12 02:00:00 13.1 17 Sur 32 Sur 0 816.3 -0.4 80
2019-10-12 01:00:00 13.3 14 Sudeste 27 Sur 0 816.3 -0.3 78
2019-10-12 00:00:00 13.2 13 Sudeste 31 Sudeste 0 816.9 0.5 81
2019-10-11 23:00:00 13.3 10 Sudeste 31 Sudoeste 0 816.7 0.4 81
2019-10-11 22:00:00 13 16 Sur 42 Sudoeste 0 816.6 0.3 84
2019-10-11 21:00:00 12.7 22 Sur 39 Sur 0 816.4 0.2 85
2019-10-11 20:00:00 13.1 19 Sur 42 Sur 0 816.3 -0.2 83
2019-10-11 19:00:00 14.2 15 Sur 46 Sur 0 816.3 -0.6 78
2019-10-11 18:00:00 15.7 26 Sur 48 Sur 0 816.2 -1.4 72
2019-10-11 17:00:00 16.6 15 Sur 35 Sur 0 816.5 -1.6 67
2019-10-11 16:00:00 17.2 13 Sur 32 Sudoeste 0 816.9 -1.8 67
2019-10-11 15:00:00 18.5 11 Sur 33 Sur 0 817.6 -1.2 59
2019-10-11 14:00:00 18.7 12 Sur 29 Sur 0 818.1 -0.7 60
2019-10-11 13:00:00 18.8 10 Sudeste 22 Sur 0 818.7 0.3 58
2019-10-11 12:00:00 17.7 13 Sur 26 Sudoeste 0 818.8 1 64
2019-10-11 11:00:00 16.4 15 Sur 26 Sudoeste 0 818.8 1.1 65
2019-10-11 10:00:00 14.7 13 Sur 26 Sur 0 818.4 0.9 72
2019-10-11 09:00:00 11.8 19 Sur 30 Sur 0 817.8 0.4 84
2019-10-11 08:00:00 11.6 19 Sur 29 Sur 0 817.7 0.2 87
2019-10-11 07:00:00 11.5 20 Sur 31 Sur 0 817.5 -0.1 87
2019-10-11 06:00:00 11.7 23 Sur 32 Sur 0 817.4 -0.5 82
2019-10-11 05:00:00 11.7 22 Sur 35 Sudoeste 0 817.5 -0.5 80
2019-10-11 04:00:00 12.2 23 Sur 36 Sudoeste 0 817.6 -0.6 72
2019-10-11 03:00:00 12.2 25 Sudoeste 33 Sudoeste 0 817.9 -0.2 72
2019-10-11 02:00:00 12 22 Sur 39 Sur 0 818 -0.1 75
2019-10-11 01:00:00 13.5 26 Sudoeste 42 Sudoeste 0 818.2 0.3 57
2019-10-11 00:00:00 13.5 26 Sudoeste 39 Sudoeste 0 818.1 0.4 54
2019-10-10 23:00:00 13.1 21 Sudoeste 37 Sudoeste 0 818.1 0.6 51
2019-10-10 22:00:00 12.8 15 Sudoeste 22 Sudoeste 0 817.9 0.4 55
2019-10-10 21:00:00 13.2 9 Sur 24 Sur 0 817.7 0.4 53
2019-10-10 20:00:00 12.8 15 Sur 22 Sur 0 817.5 0.2 69
2019-10-10 19:00:00 15 12 Sur 25 Sur 0 817.5 0.2 61
2019-10-10 18:00:00 17 11 Sur 20 Sur 0 817.3 -0.1 53
2019-10-10 17:00:00 18.3 12 Sur 22 Sur 0 817.3 -0.5 49
2019-10-10 16:00:00 18.4 9 Sudoeste 29 Sur 0 817.3 -0.4 48
2019-10-10 15:00:00 18.5 12 Sudoeste 27 Sudoeste 0 817.4 -0.4 48
2019-10-10 14:00:00 17.8 14 Sur 39 Sur 0 817.8 0.2 50
2019-10-10 13:00:00 18.1 17 Sur 36 Sur 0 817.7 0.6 58
2019-10-10 12:00:00 16.6 7 Sur 20 Sudeste 0 817.8 1.1 59
2019-10-10 11:00:00 15.8 13 Sudeste 24 Sur 0 817.6 1.1 61
2019-10-10 10:00:00 14.3 11 Sur 24 Sur 0 817.1 0.7 56
2019-10-10 09:00:00 10.3 14 Sur 28 Sudeste 0 816.7 0.6 65
2019-10-10 08:00:00 10.4 5 Sudoeste 20 Sudeste 0 816.5 0.1 70
2019-10-10 07:00:00 10.9 3 Oeste 29 Sudeste 0 816.4 0 64
2019-10-10 06:00:00 10.6 8 Sur 24 Sur 0 816.1 -0.6 67
2019-10-10 05:00:00 10.7 9 Sur 19 Sur 0 816.4 -0.5 70
2019-10-10 04:00:00 10.8 10 Sur 16 Sur 0 816.4 -0.5 68
2019-10-10 03:00:00 10.4 10 Sur 19 Sur 0 816.7 0 71
2019-10-10 02:00:00 9.5 6 Noroeste 15 Noroeste 0 816.9 0 69
2019-10-10 01:00:00 10.2 7 Noroeste 18 Sur 0 816.9 0.3 67
2019-10-10 00:00:00 11.2 9 Sur 21 Sur 0 816.7 0.2 60
2019-10-09 23:00:00 12.3 9 Noroeste 18 Sur 0 816.9 0.5 52
2019-10-09 22:00:00 11.4 4 Este 6 Nordeste 0 816.6 0.5 52
2019-10-09 21:00:00 12 4 Noroeste 10 Noroeste 0 816.5 0.6 52
2019-10-09 20:00:00 12.6 9 Noroeste 14 Noroeste 0 816.4 0.3 51
2019-10-09 19:00:00 15.9 5 Noroeste 10 Noroeste 0 816.1 -0.2 46
2019-10-09 18:00:00 16.6 3 Nordeste 14 Norte 0 815.9 -0.3 43
2019-10-09 17:00:00 16.5 9 Norte 23 Noroeste 0 816.1 -0.3 44
2019-10-09 16:00:00 17.2 8 Noroeste 19 Noroeste 0 816.3 -0.2 49
2019-10-09 15:00:00 16.8 5 Norte 13 Noroeste 0 816.2 -0.4 60
2019-10-09 14:00:00 16.8 4 Norte 18 Noroeste 0 816.4 -0.1 64
2019-10-09 13:00:00 16.1 3 Oeste 12 Noroeste 0 816.5 0.3 62
2019-10-09 12:00:00 14 3 Este 18 Noroeste 0 816.6 0.8 73
2019-10-09 11:00:00 10.8 8 Norte 21 Noroeste 0 816.5 0.5 92
2019-10-09 10:00:00 12.3 12 Noroeste 37 Noroeste 0 816.2 0.3 81
2019-10-09 09:00:00 9.7 5 Norte 13 Norte 0 815.8 0.2 97
2019-10-09 08:00:00 9.7 10 Norte 22 Norte 0 816 0.4 98
2019-10-09 07:00:00 10.9 11 Norte 24 Norte 0 815.9 -0.3 88
2019-10-09 06:00:00 13.2 12 Sudoeste 26 Sudoeste 0 815.6 -0.9 58
2019-10-09 05:00:00 10.9 7 Oeste 14 Noroeste 0 815.6 -1.2 83
2019-10-09 04:00:00 11.2 11 Nordeste 19 Norte 0 816.2 -0.9 83
2019-10-09 03:00:00 12.4 11 Nordeste 15 Norte 0 816.5 -0.9 75
2019-10-09 02:00:00 13.4 8 Noroeste 19 Noroeste 0 816.8 -0.6 69
2019-10-09 01:00:00 13.6 13 Noroeste 21 Noroeste 0 817.1 -0.1 66
2019-10-09 00:00:00 13.2 4 Norte 12 Norte 0 817.4 0.1 68
2019-10-08 23:00:00 13.9 5 Noroeste 19 Noroeste 0 817.4 0.4 62
2019-10-08 22:00:00 14.8 8 Noroeste 20 Noroeste 0 817.2 0.3 53
2019-10-08 21:00:00 15.4 8 Noroeste 18 Noroeste 0 817.3 0.3 49
2019-10-08 20:00:00 16.8 8 Oeste 15 Noroeste 0 817 -0.1 45
2019-10-08 19:00:00 19.8 8 Oeste 17 Noroeste 0 816.9 -0.4 40
2019-10-08 18:00:00 21.3 4 Sudoeste 22 Sudoeste 0 817 -0.4 38
2019-10-08 17:00:00 21.9 10 Sudoeste 24 Sur 0 817.1 -0.7 36
2019-10-08 16:00:00 22.3 10 Sudoeste 23 Sudoeste 0 817.3 -0.8 36
2019-10-08 15:00:00 21.8 12 Sur 22 Sudoeste 0 817.4 -1.1 38
2019-10-08 14:00:00 21.9 9 Sur 24 Sur 0 817.8 -0.4 37
2019-10-08 13:00:00 20.9 11 Sur 20 Sudoeste 0 818.1 0 40
2019-10-08 12:00:00 19.2 9 Sur 24 Sur 0 818.5 0.7 43
2019-10-08 11:00:00 19.5 14 Sur 24 Sur 0 818.2 0.5 42
2019-10-08 10:00:00 17.7 4 Sudoeste 10 Sur 0 818.1 0.4 37
2019-10-08 09:00:00 14.6 8 Sudoeste 13 Sudoeste 0 817.8 0.3 40
2019-10-08 08:00:00 13.9 9 Sudoeste 20 Sur 0 817.7 0 40
2019-10-08 07:00:00 13.6 5 Oeste 6 Sudoeste 0 817.7 -0.3 53
2019-10-08 06:00:00 13.7 3 Noroeste 7 Noroeste 0 817.5 -1 51
2019-10-08 05:00:00 13.9 7 Noroeste 9 Noroeste 0 817.7 -0.8 52
2019-10-08 04:00:00 13.9 4 Oeste 11 Norte 0 818 -0.7 53
2019-10-08 03:00:00 13.8 4 Norte 9 Norte 0 818.5 -0.4 53
2019-10-08 02:00:00 14.2 7 Noroeste 11 Norte 0 818.5 -0.6 51
2019-10-08 01:00:00 13.2 6 Norte 10 Norte 0 818.7 0 49
2019-10-08 00:00:00 13.1 8 Noroeste 12 Norte 0 818.9 0.3 47
2019-10-07 23:00:00 13 9 Norte 12 Norte 0 819.1 0.6 48
2019-10-07 22:00:00 13.5 6 Noroeste 8 Norte 0 818.7 0.3 45
2019-10-07 21:00:00 13.7 7 Noroeste 13 Norte 0 818.6 0.4 46
2019-10-07 20:00:00 14.1 10 Norte 14 Norte 0 818.5 0.1 46
2019-10-07 19:00:00 16.1 5 Noroeste 27 Noroeste 0 818.4 0.1 41
2019-10-07 18:00:00 16.8 10 Noroeste 30 Norte 0 818.2 -0.2 43
2019-10-07 17:00:00 17.8 11 Norte 26 Noroeste 0 818.4 -0.2 42
2019-10-07 16:00:00 18.3 5 Noroeste 26 Noroeste 0 818.3 -0.2 44
2019-10-07 15:00:00 17.8 10 Norte 26 Noroeste 0 818.4 -0.2 42
2019-10-07 14:00:00 17.5 11 Norte 27 Norte 0 818.6 0.4 45
2019-10-07 13:00:00 16.8 15 Norte 31 Norte 0 818.5 0.9 50
2019-10-07 12:00:00 15.4 10 Norte -- -- -- 818.6 1.4 42
2019-10-07 11:00:00 13.6 15 Norte 36 Norte 0 818.2 1.3 42
2019-10-07 10:00:00 12.2 21 Norte 33 Norte 0 817.6 0.9 38
2019-10-07 09:00:00 10.4 21 Norte 32 Norte 0 817.2 0.8 39
2019-10-07 08:00:00 10.2 23 Norte 35 Norte 0 816.9 0.1 49
2019-10-07 07:00:00 10.2 21 Norte 36 Norte 0 816.7 -0.6 52
2019-10-07 06:00:00 10.4 22 Norte 43 Norte 0 816.4 -1.3 52
2019-10-07 05:00:00 10.1 26 Norte 37 Norte 0 816.8 -0.9 63
2019-10-07 04:00:00 9.2 20 Norte 27 Norte 0 817.3 -0.6 67
2019-10-07 03:00:00 9.8 18 Norte 31 Norte 0 817.7 -0.3 61
2019-10-07 02:00:00 10.3 20 Norte 34 Norte 0 817.7 -0.4 58
2019-10-07 01:00:00 10.3 19 Norte 33 Norte 0 817.9 0.2 59
2019-10-07 00:00:00 10.1 20 Norte 32 Norte 0 818 0.5 64
2019-10-06 23:00:00 10.2 21 Norte 40 Norte 0 818.1 0.6 60
2019-10-06 22:00:00 10.1 23 Norte 38 Norte 0 817.7 0 58
2019-10-06 21:00:00 10.9 21 Norte 36 Noroeste 0 817.5 0.1 59
2019-10-06 20:00:00 12.1 16 Norte 33 Noroeste 0 817.5 -0.3 53
2019-10-06 19:00:00 14.3 14 Noroeste 28 Noroeste 0 817.7 -0.2 41
2019-10-06 18:00:00 15.4 9 Norte 22 Noroeste 0 817.4 -0.5 40
2019-10-06 17:00:00 16.4 8 Noroeste 21 Noroeste 0 817.8 -0.3 41
2019-10-06 16:00:00 16.7 8 Norte 19 Nordeste 0 817.9 -0.3 44
2019-10-06 15:00:00 16.8 7 Noroeste 23 Norte 0 817.9 -0.3 47
2019-10-06 14:00:00 16.2 7 Noroeste 17 Noroeste 0 818.1 0.5 53
2019-10-06 13:00:00 16 4 Noroeste 18 Norte 0 818.2 0.8 55
2019-10-06 12:00:00 16.3 5 Norte 12 Norte 0 818.2 1.3 47
2019-10-06 11:00:00 16.3 4 Este 10 Nordeste 0 817.6 1.1 33
2019-10-06 10:00:00 12.3 7 Norte 15 Norte 0 817.4 1.5 29
2019-10-06 09:00:00 10.2 12 Norte 14 Norte 0 816.9 0.5 28
2019-10-06 08:00:00 10.2 12 Nordeste 15 Nordeste 0 816.5 0.6 34
2019-10-06 07:00:00 9.4 9 Nordeste 14 Nordeste 0 815.9 -0.4 38
2019-10-06 06:00:00 10.3 10 Norte 21 Norte 0 816.4 0.1 41
2019-10-06 05:00:00 10.1 10 Nordeste 18 Nordeste 0 815.9 -0.7 49
2019-10-06 04:00:00 10.9 10 Norte 18 Norte 0 816.3 -0.6 47
2019-10-06 03:00:00 11 4 Nordeste 15 Nordeste 0 816.3 -0.4 31
2019-10-06 02:00:00 8.8 13 Nordeste 23 Norte 0 816.6 0.1 72
2019-10-06 01:00:00 9.7 12 Norte 21 Norte 0 816.9 0.4 66
2019-10-06 00:00:00 10.7 12 Nordeste 22 Nordeste 0 816.7 0.5 66
2019-10-05 23:00:00 11.3 14 Nordeste 24 Nordeste 0 816.5 0.4 64
2019-10-05 22:00:00 11.1 15 Norte 23 Norte 0 816.5 0.8 60
2019-10-05 21:00:00 12 10 Norte 19 Noroeste 0 816.2 0.7 55
2019-10-05 20:00:00 13.3 10 Noroeste 24 Noroeste 0 816.1 0.8 52
2019-10-05 19:00:00 16.9 6 Noroeste 21 Norte 0 815.7 0.4 40
2019-10-05 18:00:00 17.5 8 Noroeste 24 Oeste 0 815.5 0 39
2019-10-05 17:00:00 18.4 5 Noroeste 19 Norte 0 815.3 -0.2 43
2019-10-05 16:00:00 18.3 8 Norte 23 Noroeste 0 815.3 -0.2 46
2019-10-05 15:00:00 19.1 8 Noroeste 22 Noroeste 0 815.5 0.1 50
2019-10-05 14:00:00 19.1 4 Oeste 13 Noroeste 0 815.5 0.4 44
2019-10-05 13:00:00 17.2 3 Noroeste 10 Oeste 0 815.5 0.8 54
2019-10-05 12:00:00 16.9 5 Oeste 18 Sur 0 815.4 0.9 52
2019-10-05 11:00:00 16 10 Sur 18 Sur 0 815.1 1.1 44
2019-10-05 10:00:00 12.3 5 Sur 8 Sur 0 814.7 0.7 54
2019-10-05 09:00:00 9.3 6 Oeste 9 Noroeste 0 814.5 0.3 75
2019-10-05 08:00:00 9.4 6 Oeste 9 Oeste 0 814 -0.5 68
2019-10-05 07:00:00 9.6 4 Oeste 7 Noroeste 0 814 -0.6 75
2019-10-05 06:00:00 9.5 4 Norte 10 Norte 0 814.2 -0.8 77
2019-10-05 05:00:00 9 8 Nordeste 10 Norte 0 814.5 -0.6 84
2019-10-05 04:00:00 9.5 6 Nordeste 11 Norte 0 814.6 -0.9 87
2019-10-05 03:00:00 9.8 8 Norte 15 Norte 0 815 -0.5 85
2019-10-05 02:00:00 10 12 Norte 16 Norte 0 815.1 -0.5 86
2019-10-05 01:00:00 10.3 10 Nordeste 13 Nordeste 0 815.5 0 87
2019-10-05 00:00:00 10.5 6 Nordeste 12 Nordeste 0 815.5 0.2 91
2019-10-04 23:00:00 10.4 10 Norte 13 Norte 0 815.6 0.5 93
2019-10-04 22:00:00 11.2 8 Noroeste 11 Noroeste 0 815.5 0.4 89
2019-10-04 21:00:00 12.8 8 Oeste 14 Sur 0 815.3 0.3 71
2019-10-04 20:00:00 13.9 6 Sudoeste 16 Sur 0 815.1 -0.1 61
2019-10-04 19:00:00 16.3 6 Noroeste 18 Noroeste 0 815.1 -0.6 64
2019-10-04 18:00:00 17 4 Noroeste 13 Nordeste 0 815 -1 58
2019-10-04 17:00:00 16.9 3 Nordeste 21 Noroeste 0 815.2 -0.9 60
2019-10-04 16:00:00 16.9 6 Noroeste 26 Norte 0 815.7 -0.6 61
2019-10-04 15:00:00 16.6 13 Noroeste 25 Noroeste 0 816 -0.5 63
2019-10-04 14:00:00 19.4 8 Sudoeste 24 Sur 0 816.1 -0.2 44
2019-10-04 13:00:00 19.5 10 Sur 25 Sur 0 816.3 0.1 38
2019-10-04 12:00:00 18.2 8 Sur 18 Sur 0 816.5 0.5 39
2019-10-04 11:00:00 16.5 10 Sudeste 22 Sudeste 0 816.3 0.5 40
2019-10-04 10:00:00 14.3 10 Sur 24 Sur 0 816.2 0.5 43
2019-10-04 09:00:00 12.8 15 Sur 22 Sur 0 816 0.2 41
2019-10-04 08:00:00 12.9 14 Sur 22 Sur 0 815.8 -0.3 40
2019-10-04 07:00:00 12.8 13 Sudoeste 22 Sur 0 815.7 -0.9 38
2019-10-04 06:00:00 12.5 5 Sur 20 Sur 0 815.8 -1.3 37
2019-10-04 05:00:00 10.6 6 Sudoeste 10 Sur 0 816.1 -1.1 47
2019-10-04 04:00:00 9.7 6 Norte 11 Nordeste 0 816.6 -0.8 72
2019-10-04 03:00:00 9.3 10 Nordeste 17 Nordeste 0 817.1 -0.5 71
2019-10-04 02:00:00 10 12 Norte 24 Noroeste 0 817.2 -0.1 57
2019-10-04 01:00:00 10.5 14 Norte 22 Norte 0 817.4 0.4 52
2019-10-04 00:00:00 10.9 12 Norte 22 Norte 0 817.6 0.7 53
2019-10-03 23:00:00 11.1 13 Norte 19 Norte 0 817.3 0.5 49
2019-10-03 22:00:00 11.3 12 Nordeste 17 Nordeste 0 817 0.4 46
2019-10-03 21:00:00 10.9 12 Nordeste 21 Norte 0 816.9 0.2 49
2019-10-03 20:00:00 11.4 18 Norte 25 Norte 0 816.8 0.1 49
2019-10-03 19:00:00 12.4 14 Norte 25 Norte 0 816.6 -0.3 46
2019-10-03 18:00:00 13.7 14 Norte 29 Norte 0 816.7 0 43
2019-10-03 17:00:00 15.1 12 Norte 26 Noroeste 0 816.7 -0.1 39
2019-10-03 16:00:00 15.4 12 Norte 32 Norte 0 816.9 0.2 43
2019-10-03 15:00:00 15.8 9 Norte 17 Norte 0 816.7 -0.2 37
2019-10-03 14:00:00 15.4 6 Norte 20 Norte 0 816.8 0.3 35
2019-10-03 13:00:00 13.5 11 Noroeste 23 Norte 0 816.7 0.5 40
2019-10-03 12:00:00 11.2 15 Norte 24 Noroeste 0 816.9 1.1 56
2019-10-03 11:00:00 10.9 9 Nordeste 28 Norte 0 816.5 1.1 53
2019-10-03 10:00:00 7.6 18 Norte 25 Norte 0 816.2 0.8 67
2019-10-03 09:00:00 6.6 18 Norte 22 Norte 0 815.8 0.6 70
2019-10-03 08:00:00 7.1 12 Noroeste 19 Noroeste 0 815.4 0.3 53
2019-10-03 07:00:00 6.8 5 Noroeste 13 Oeste 0 815.4 0.1 59
2019-10-03 06:00:00 7.1 5 Noroeste 11 Norte 0 815.2 -0.7 54
2019-10-03 05:00:00 7.7 8 Norte 10 Norte 0 815.1 -0.7 45
2019-10-03 04:00:00 6.6 6 Oeste 13 Noroeste 0 815.3 -1 67
2019-10-03 03:00:00 6.6 6 Noroeste 11 Oeste 0 815.9 -0.7 72
2019-10-03 02:00:00 6.6 3 Noroeste 10 Noroeste 0 815.8 -0.6 67
2019-10-03 01:00:00 6.6 5 Noroeste 17 Norte 0 816.3 -0.1 71
2019-10-03 00:00:00 6.4 8 Norte 18 Norte 0 816.6 0.5 72
2019-10-02 23:00:00 6.8 14 Norte 20 Norte 0 816.4 0.4 72
2019-10-02 22:00:00 6.6 13 Norte 19 Norte 0 816.4 0.5 74
2019-10-02 21:00:00 6.9 13 Norte 21 Norte 0 816.1 0.7 72
2019-10-02 20:00:00 8 10 Norte 18 Noroeste 0 816 0.7 68
2019-10-02 19:00:00 10.1 10 Noroeste 19 Noroeste 0 815.9 0.4 61
2019-10-02 18:00:00 11.1 7 Noroeste 18 Norte 0 815.4 0.3 57
2019-10-02 17:00:00 11.3 7 Norte 23 Noroeste 0 815.3 0.1 58
2019-10-02 16:00:00 10.9 12 Noroeste 26 Noroeste 0 815.5 0.6 58
2019-10-02 15:00:00 11 8 Noroeste 28 Norte 0 815.1 0.4 60
2019-10-02 14:00:00 10 13 Norte 27 Norte 0 815.2 1 62
2019-10-02 13:00:00 10 13 Norte 28 Norte 0 814.9 1.3 63
2019-10-02 12:00:00 7.2 14 Norte 27 Norte 0 814.7 1.6 83
2019-10-02 11:00:00 5.5 14 Norte 28 Norte 0 814.2 1.4 100
2019-10-02 10:00:00 3.7 16 Norte 33 Norte 0 813.6 1 100
2019-10-02 09:00:00 3.9 18 Norte 40 Norte 0 813.1 0.6 100
2019-10-02 08:00:00 4 21 Norte 38 Norte 0 812.8 0.2 100
2019-10-02 07:00:00 4.2 19 Norte 47 Norte 0 812.6 -0.2 100
2019-10-02 06:00:00 4.5 22 Norte 46 Norte 0 812.5 -0.7 100
2019-10-02 05:00:00 4.8 24 Norte 51 Norte 0 812.6 -0.7 99
2019-10-02 04:00:00 5.7 28 Norte 54 Norte 0 812.8 -0.8 99
2019-10-02 03:00:00 6.3 26 Norte 50 Noroeste 0 813.2 -0.6 98
2019-10-02 02:00:00 6.6 23 Norte 57 Noroeste 0 813.3 -0.5 96
2019-10-02 01:00:00 7.3 21 Noroeste 56 Noroeste 0 813.6 0 89
2019-10-02 00:00:00 8 19 Noroeste 53 Noroeste 0 813.8 0.4 82
2019-10-01 23:00:00 8.7 18 Noroeste 43 Noroeste 0 813.8 0.5 77
2019-10-01 22:00:00 8.8 13 Noroeste 38 Noroeste 0 813.6 0.1 80
2019-10-01 21:00:00 9.1 13 Norte 34 Noroeste 0 813.4 0.3 79
2019-10-01 20:00:00 9.9 9 Norte 30 Noroeste 0 813.3 0.1 78
2019-10-01 19:00:00 11.7 9 Noroeste 36 Noroeste 0 813.5 0.3 73
2019-10-01 18:00:00 11.8 14 Norte 34 Norte 0 813.1 -0.2 77
2019-10-01 17:00:00 12.1 13 Norte 35 Noroeste 0 813.2 -0.5 77
2019-10-01 16:00:00 13.4 15 Noroeste 37 Noroeste 0 813.2 -0.5 62
2019-10-01 15:00:00 13.5 18 Norte 34 Norte 0 813.3 -0.8 66
2019-10-01 14:00:00 12.6 16 Norte 31 Norte 0 813.7 0 70
2019-10-01 13:00:00 13.6 6 Norte 24 Norte 0 813.7 0.5 70
2019-10-01 12:00:00 11.8 11 Noroeste 21 Noroeste 0 814.1 1.3 74
2019-10-01 11:00:00 13.4 6 Norte 12 Noroeste 0 813.7 0.5 63
2019-10-01 10:00:00 13.6 4 Norte 14 Noroeste 0 813.2 0.4 41
2019-10-01 09:00:00 11.2 11 Oeste 25 Oeste 0 812.8 0 54
2019-10-01 08:00:00 10.6 14 Noroeste 30 Norte 0 813.2 0.1 64
2019-10-01 07:00:00 12 7 Oeste 29 Sudoeste 0 812.8 -1.1 33
2019-10-01 06:00:00 12.8 19 Sudoeste 28 Sudoeste 0 812.8 -1.8 32
2019-10-01 05:00:00 12.2 3 Sudeste 8 Sur 0 813.1 -1.8 42
2019-10-01 04:00:00 12.4 4 Norte 19 Noroeste 0 813.9 -1.3 40
2019-10-01 03:00:00 13.4 4 Noroeste 18 Noroeste 0 814.6 -0.9 33
2019-10-01 02:00:00 13.5 5 Oeste 10 Oeste 0 814.9 -0.7 30
2019-10-01 01:00:00 13.8 4 Norte 16 Noroeste 0 815.2 -0.4 32
2019-10-01 00:00:00 14 4 Norte 18 Noroeste 0 815.5 0.1 35
2019-09-30 23:00:00 14.1 10 Oeste 18 Oeste 0 815.6 0.2 38
2019-09-30 22:00:00 15.2 9 Oeste 18 Sur 0 815.6 0.2 30
2019-09-30 21:00:00 15 14 Sur 24 Sur 0 815.4 -0.1 26
2019-09-30 20:00:00 16.3 16 Sur 30 Sudoeste 0 815.4 -0.5 30
2019-09-30 19:00:00 18.9 18 Sudoeste 30 Sudoeste 0 815.4 -0.8 27
2019-09-30 18:00:00 20.5 14 Sudoeste 29 Sudoeste 0 815.5 -1 26
2019-09-30 17:00:00 21 10 Sudoeste 30 Sudoeste 0 815.9 -1.2 25
2019-09-30 16:00:00 21.7 13 Sudoeste 28 Sur 0 816.2 -0.9 25
2019-09-30 15:00:00 21.9 9 Sudoeste 21 Sudoeste 0 816.5 -0.7 26
2019-09-30 14:00:00 20.5 5 Sudeste 25 Sudoeste 0 817.1 0.1 27
2019-09-30 13:00:00 19.8 9 Sudoeste 31 Sur 0 817.1 0.3 24
2019-09-30 12:00:00 20.2 15 Sur 30 Sur 0 817.2 0.6 28
2019-09-30 11:00:00 18.5 17 Sur 32 Sur 0 817 0.6 32
2019-09-30 10:00:00 15.5 17 Sur 29 Sur 0 816.8 0.5 38
2019-09-30 09:00:00 12 17 Sur 26 Sur 0 816.6 0.2 41
2019-09-30 08:00:00 12 17 Sur 24 Sur 0 816.4 -0.3 42
2019-09-30 07:00:00 12.3 17 Sur 23 Sur 0 816.3 -0.9 42
2019-09-30 06:00:00 12.2 5 Sur 12 Sur 0 816.4 -1.2 44
2019-09-30 05:00:00 11.7 3 Oeste 4 Noroeste 0 816.7 -1.1 52
2019-09-30 04:00:00 12 4 Norte 7 Norte 0 817.2 -0.9 51
2019-09-30 03:00:00 12.2 7 Norte 10 Noroeste 0 817.6 -0.5 51
2019-09-30 02:00:00 12.2 6 Noroeste 14 Norte 0 817.8 -0.4 43
2019-09-30 01:00:00 12.5 8 Norte 15 Noroeste 0 818.1 0.1 38
2019-09-30 00:00:00 13.4 6 Norte 12 Norte 0 818.1 0.5 30
2019-09-29 23:00:00 13.5 7 Noroeste 15 Oeste 0 818.2 0.8 31
2019-09-29 22:00:00 13.9 7 Noroeste 16 Noroeste 0 818 0.7 33
2019-09-29 21:00:00 14 8 Noroeste 14 Noroeste 0 817.6 0.2 36
2019-09-29 20:00:00 15.6 8 Noroeste 15 Noroeste 0 817.4 -0.2 33
2019-09-29 19:00:00 18 5 Noroeste 19 Noroeste 0 817.3 -0.4 30
2019-09-29 18:00:00 19.2 6 Oeste 20 Noroeste 0 817.4 -0.6 32
2019-09-29 17:00:00 19.4 9 Noroeste 20 Noroeste 0 817.6 -0.7 34
2019-09-29 16:00:00 20 7 Norte 27 Noroeste 0 817.7 -0.4 33
2019-09-29 15:00:00 19 10 Norte 24 Noroeste 0 818 -0.1 33
2019-09-29 14:00:00 19.8 8 Noroeste 25 Noroeste 0 818.3 0.4 31
2019-09-29 13:00:00 19.7 6 Noroeste 15 Noroeste 0 818.1 0.7 33
2019-09-29 12:00:00 19.3 9 Oeste 19 Sudoeste 0 818.1 0.9 33
2019-09-29 11:00:00 17.7 8 Sudoeste 21 Oeste 0 817.9 0.9 38
2019-09-29 10:00:00 15.6 6 Oeste 21 Oeste 0 817.4 0.5 39
2019-09-29 09:00:00 12.5 7 Este 17 Oeste 0 817.2 0.4 45
2019-09-29 08:00:00 12.4 9 Oeste 26 Sudoeste 0 817 0 39
2019-09-29 07:00:00 12.1 8 Oeste 31 Oeste 0 816.9 -0.3 35
2019-09-29 06:00:00 12.5 15 Sudoeste 32 Oeste 0 816.8 -0.7 35
2019-09-29 05:00:00 12.3 14 Sudoeste 29 Sudoeste 0 817 -0.6 34
2019-09-29 04:00:00 14.3 19 Sudoeste 33 Sudoeste 0 817.2 -0.8 32
2019-09-29 03:00:00 13.9 18 Sudoeste 27 Sudoeste 0 817.5 -0.6 33
2019-09-29 02:00:00 13.5 12 Sur 22 Sudoeste 0 817.6 -0.6 32
2019-09-29 01:00:00 13.4 13 Sur 24 Sur 0 818 -0.2 33
2019-09-29 00:00:00 13.9 13 Sur 21 Sur 0 818.1 -0.1 35
2019-09-28 23:00:00 14.1 8 Sudoeste 18 Sur 0 818.2 0.3 37
2019-09-28 22:00:00 14.2 15 Sur 22 Sur 0 818.2 0.1 33
2019-09-28 21:00:00 14.5 16 Sur 24 Sur 0 818.2 0.1 34
2019-09-28 20:00:00 16 15 Sur 24 Sudoeste 0 817.9 -0.1 32
2019-09-28 19:00:00 19.6 11 Sudoeste 21 Sur 0 818.1 -0.2 29
2019-09-28 18:00:00 20.9 10 Sudoeste 23 Oeste 0 818.1 -0.4 31
2019-09-28 17:00:00 21.5 7 Sudoeste 21 Oeste 0 818 -0.8 32
2019-09-28 16:00:00 21.2 6 Sudoeste 17 Sudoeste 0 818.3 -0.6 31
2019-09-28 15:00:00 20.4 11 Sudoeste 23 Sudoeste 0 818.5 -0.4 31
2019-09-28 14:00:00 21.1 7 Sur 22 Sur 0 818.8 0.2 31
2019-09-28 13:00:00 20.7 10 Sur 22 Sur 0 818.9 0.8 33
2019-09-28 12:00:00 18.9 7 Sur 22 Sur 0 818.9 1.4 35
2019-09-28 11:00:00 16.9 9 Sur 22 Sur 0 818.6 1.2 38
2019-09-28 10:00:00 14.4 10 Sur 26 Sur 0 818.1 0.6 45
2019-09-28 09:00:00 11.1 7 Sudeste 26 Sudeste 0 817.5 0 55
2019-09-28 08:00:00 10.3 4 Sudoeste 23 Sur 0 817.4 0.2 58
2019-09-28 07:00:00 11.1 12 Sur 17 Sur 0 817.5 -0.3 57
2019-09-28 06:00:00 11.3 4 Sur 23 Sur 0 817.5 -0.5 55
2019-09-28 05:00:00 11.3 10 Sur 23 Sur 0 817.2 -1.1 49
2019-09-28 04:00:00 11.8 5 Oeste 23 Sudoeste 0 817.8 -0.6 32
2019-09-28 03:00:00 10.2 8 Sudoeste 14 Sudoeste 0 818 -0.5 38
2019-09-28 02:00:00 9 6 Norte 11 Norte 0 818.3 0 83
2019-09-28 01:00:00 9.6 5 Norte 16 Norte 0 818.4 0.1 63
2019-09-28 00:00:00 10.5 9 Norte 17 Noroeste 0 818.5 0.5 56
2019-09-27 23:00:00 11.3 14 Noroeste 18 Noroeste 0 818.3 0.5 51
2019-09-27 22:00:00 11.4 9 Noroeste 15 Noroeste 0 818.3 0.5 47
2019-09-27 21:00:00 11.8 7 Noroeste 18 Norte 0 818 0.4 41
2019-09-27 20:00:00 13.4 10 Noroeste 17 Noroeste 0 817.8 0.3 37
2019-09-27 19:00:00 15.7 8 Noroeste 24 Noroeste 0 817.8 0.3 37
2019-09-27 18:00:00 16.4 12 Noroeste 28 Noroeste 0 817.6 -0.1 38
2019-09-27 17:00:00 18 11 Noroeste 25 Norte 0 817.5 -0.5 32
2019-09-27 16:00:00 18.6 8 Noroeste 23 Noroeste 0 817.5 -0.5 28
2019-09-27 15:00:00 18.5 6 Noroeste 16 Noroeste 0 817.7 -0.5 32
2019-09-27 14:00:00 17.5 6 Noroeste 15 Noroeste 0 818 0.2 38
2019-09-27 13:00:00 16.7 6 Norte 15 Noroeste 0 818 0.6 42
2019-09-27 12:00:00 15.7 5 Norte 15 Noroeste 0 818.2 1 47
2019-09-27 11:00:00 15.4 2 Nordeste 13 Noroeste 0 817.8 0.8 35
2019-09-27 10:00:00 13.1 5 Este 10 Noroeste 0 817.4 0.2 46
2019-09-27 09:00:00 11.3 7 Noroeste 19 Oeste 0 817.2 -0.1 45
2019-09-27 08:00:00 11.2 8 Oeste 13 Noroeste 0 817 -0.2 52
2019-09-27 07:00:00 10.9 8 Noroeste 13 Oeste 0 817.2 -0.2 42
2019-09-27 06:00:00 11.3 3 Norte 7 Noroeste 0 817.3 -0.5 43
2019-09-27 05:00:00 11.3 5 Oeste 8 Oeste 0 817.2 -0.9 44
2019-09-27 04:00:00 11.4 6 Noroeste 9 Noroeste 0 817.4 -1 41
2019-09-27 03:00:00 10.7 4 Este 7 Nordeste 0 817.8 -0.7 42
2019-09-27 02:00:00 11.3 5 Nordeste 13 Noroeste 0 818.1 -0.3 43
2019-09-27 01:00:00 12 9 Noroeste 14 Norte 0 818.4 0.2 41
2019-09-27 00:00:00 12.5 9 Norte 12 Noroeste 0 818.5 0.8 46
2019-09-26 23:00:00 12.6 8 Norte 11 Norte 0 818.4 0.8 50
2019-09-26 22:00:00 13.1 8 Noroeste 13 Noroeste 0 818.2 0.7 52
2019-09-26 21:00:00 13.5 8 Norte 13 Noroeste 0 817.7 0.2 56
2019-09-26 20:00:00 15.2 6 Noroeste 19 Norte 0 817.6 0.1 55
2019-09-26 19:00:00 18.2 5 Noroeste 22 Noroeste 0 817.5 0 47
2019-09-26 18:00:00 19.8 9 Noroeste 25 Noroeste 0 817.5 0 43
2019-09-26 17:00:00 21.3 5 Noroeste 20 Oeste 0 817.5 -0.1 39
2019-09-26 16:00:00 21.4 12 Sudoeste 23 Sudoeste 0 817.5 -0.3 40
2019-09-26 15:00:00 21 12 Sudoeste 24 Sudoeste 0 817.5 -0.4 41
2019-09-26 14:00:00 20.3 10 Sudoeste 24 Sudoeste 0 817.6 0 40
2019-09-26 13:00:00 19.7 9 Sudoeste 21 Sudoeste 0 817.8 0.6 41
2019-09-26 12:00:00 18.8 6 Sudoeste 18 Sudoeste 0 817.9 1.2 48
2019-09-26 11:00:00 17.4 8 Sudoeste 18 Oeste 0 817.6 1.1 42
2019-09-26 10:00:00 15.6 7 Oeste 12 Noroeste 0 817.2 1.1 44
2019-09-26 09:00:00 13.3 4 Sudoeste 15 Oeste 0 816.7 0.7 47
2019-09-26 08:00:00 12.9 8 Oeste 17 Oeste 0 816.5 0.4 46
2019-09-26 07:00:00 12.7 8 Oeste 17 Oeste 0 816.1 -0.2 46
2019-09-26 06:00:00 12.6 12 Oeste 15 Oeste 0 816 -0.5 47
2019-09-26 05:00:00 12.2 10 Sudoeste 15 Sur 0 816.1 -0.4 48
2019-09-26 04:00:00 11.2 6 Sur 10 Nordeste 0 816.3 -0.3 53
2019-09-26 03:00:00 11.1 9 Nordeste 11 Nordeste 0 816.5 -0.1 57
2019-09-26 02:00:00 12.1 4 Norte 7 Noroeste 0 816.5 0 51
2019-09-26 01:00:00 12.8 4 Oeste 6 Oeste 0 816.6 0.3 47
2019-09-26 00:00:00 12.2 3 Sudeste 7 Este 0 816.6 0.6 52
2019-09-25 23:00:00 10.7 3 Este 18 Noroeste 0 816.5 0.8 65
2019-09-25 22:00:00 12.6 7 Noroeste 10 Noroeste 0 816.3 0.7 52
2019-09-25 21:00:00 10.8 5 Nordeste 17 Noroeste 0 816 0.5 62
2019-09-25 20:00:00 10.6 9 Norte 26 Norte 0 815.7 0.2 68
2019-09-25 19:00:00 12.3 9 Norte 21 Noroeste 0 815.6 0.1 64
2019-09-25 18:00:00 13.7 10 Norte 23 Noroeste 0 815.5 -0.1 57
2019-09-25 17:00:00 14.6 9 Noroeste 24 Noroeste 0 815.5 -0.2 54
2019-09-25 16:00:00 15.2 6 Norte 19 Noroeste 0 815.5 -0.3 51
2019-09-25 15:00:00 15.2 6 Noroeste 18 Noroeste 0 815.6 -0.1 53
2019-09-25 14:00:00 13.7 7 Norte 16 Noroeste 0 815.7 0.5 55
2019-09-25 13:00:00 11.4 7 Noroeste 19 Noroeste 0 815.8 1.3 64
2019-09-25 12:00:00 10.9 7 Norte 18 Noroeste 0 815.7 1.6 65
2019-09-25 11:00:00 10.3 6 Norte 17 Norte 0 815.2 1.4 69
2019-09-25 10:00:00 7.2 9 Norte 23 Nordeste 0 814.5 0.7 91
2019-09-25 09:00:00 5.9 13 Norte 26 Norte 0 814.1 0.1 93
2019-09-25 08:00:00 5.8 15 Norte 33 Noroeste 0 813.8 -0.2 96
2019-09-25 07:00:00 5.9 17 Norte 34 Norte 0 813.8 -0.6 96
2019-09-25 06:00:00 6.2 13 Norte 30 Norte 0 814 -0.8 95
2019-09-25 05:00:00 6.4 15 Norte 36 Norte 0 814 -1.1 93
2019-09-25 04:00:00 6.9 19 Norte 38 Norte 0 814.4 -1.1 94
2019-09-25 03:00:00 7.8 18 Norte 36 Norte 0 814.8 -1.1 93
2019-09-25 02:00:00 9 21 Norte 41 Noroeste 0 815.1 -0.9 91
2019-09-25 01:00:00 9.8 13 Norte 32 Norte 0 815.5 -0.6 92
2019-09-25 00:00:00 10.2 13 Norte 30 Noroeste 0 815.9 -0.1 91
2019-09-24 23:00:00 10.9 11 Noroeste 31 Noroeste 0 816 0 91
2019-09-24 22:00:00 12.2 9 Noroeste 25 Noroeste 0 816.1 0.2 88
2019-09-24 21:00:00 12.7 8 Norte 18 Noroeste 0 816 0 89
2019-09-24 20:00:00 13.4 6 Noroeste 26 Noroeste 0 816 -0.2 87
2019-09-24 19:00:00 14.6 6 Noroeste 19 Noroeste 0 815.9 -0.5 84
2019-09-24 18:00:00 15.2 9 Noroeste 18 Noroeste 0 816 -0.4 81
2019-09-24 17:00:00 15.7 7 Noroeste 29 Oeste 0 816.2 -0.9 78
2019-09-24 16:00:00 15.8 16 Oeste 44 Oeste 0 816.4 -1 75
2019-09-24 15:00:00 16.2 23 Oeste 43 Sudoeste 0 816.4 -0.9 72
2019-09-24 14:00:00 15.7 12 Oeste 28 Sudoeste 0 817.1 -0.2 75
2019-09-24 13:00:00 15.4 8 Norte 22 Nordeste 0 817.4 0.6 64
2019-09-24 12:00:00 -- 11 Norte 30 Norte 0 817.3 0.7 --
2019-09-24 11:00:00 14.4 10 Noroeste 32 Noroeste 0 817.3 1 49
2019-09-24 10:00:00 13.5 12 Norte 24 Norte 0 816.8 0.4 51
2019-09-24 09:00:00 11.3 10 Noroeste 25 Noroeste 0 816.6 0.1 52
2019-09-24 08:00:00 10.8 5 Nordeste 28 Norte 0 816.3 -0.2 44
2019-09-24 07:00:00 10.6 10 Nordeste 22 Norte 0 816.4 -0.1 41
2019-09-24 06:00:00 11.8 6 Noroeste 34 Oeste 0 816.5 -0.7 33
2019-09-24 05:00:00 12.3 14 Oeste 37 Sudoeste 0 816.5 -0.8 40
2019-09-24 04:00:00 11.9 19 Sudoeste 33 Sudoeste 0 816.5 -1.1 57
2019-09-24 03:00:00 12.1 9 Sur 26 Sudoeste 0 817.2 -0.8 65
2019-09-24 02:00:00 11.9 12 Sudoeste 28 Sur 0 817.3 -0.9 64
2019-09-24 01:00:00 11.4 4 Sudeste 19 Sur 0 817.6 -0.5 68
2019-09-24 00:00:00 12.3 7 Oeste 19 Oeste 0 818 0.2 60
2019-09-23 23:00:00 12.5 13 Sudoeste 33 Oeste 0 818.2 0.7 59
2019-09-23 22:00:00 11.9 9 Oeste 17 Oeste 0 818.1 0.6 63
2019-09-23 21:00:00 11.9 12 Sudoeste 18 Oeste 0 817.8 0.4 64
2019-09-23 20:00:00 12.9 8 Sudoeste 14 Sudoeste 0 817.5 0.1 65
2019-09-23 19:00:00 14.9 3 Oeste 7 Este 0 817.5 0.3 54
2019-09-23 18:00:00 15.9 2 Este 14 Noroeste 0 817.4 0.2 50
2019-09-23 17:00:00 16.2 6 Noroeste 15 Noroeste 0 817.4 0.2 53
2019-09-23 16:00:00 16.8 5 Sur 16 Sudeste 0 817.2 0 57
2019-09-23 15:00:00 15.9 5 Sudoeste 15 Sur 0 817.2 0.4 60
2019-09-23 14:00:00 16.3 4 Norte 14 Sudoeste 0 817.2 0.7 59
2019-09-23 13:00:00 14.9 3 Noroeste 16 Sur 0 817.2 0.8 57
2019-09-23 12:00:00 14.4 9 Sur 19 Sudeste 0 816.8 0.9 67
2019-09-23 11:00:00 12.3 7 Sur 14 Sur 0 816.5 0.9 61
2019-09-23 10:00:00 10.5 5 Noroeste 19 Sudoeste 0 816.4 1.4 58
2019-09-23 09:00:00 8.2 4 Oeste 16 Oeste 0 815.9 1 72
2019-09-23 08:00:00 7.8 17 Sudoeste 30 Oeste 0 815.6 0.8 76
2019-09-23 07:00:00 7.4 15 Sudoeste 24 Sudoeste 0 815 0.2 84
2019-09-23 06:00:00 6.5 7 Sur 18 Sudoeste 0 814.9 -0.1 82
2019-09-23 05:00:00 6.6 9 Noroeste 15 Oeste 0 814.8 0 74
2019-09-23 04:00:00 6.6 3 Oeste 12 Norte 0 814.8 -0.2 75
2019-09-23 03:00:00 6.5 8 Norte 14 Norte 0 815 0.3 80
2019-09-23 02:00:00 6.3 6 Nordeste 18 Norte 0 814.8 0.2 80
2019-09-23 01:00:00 6.2 12 Norte 16 Norte 0 815 0.8 84
2019-09-23 00:00:00 6.6 10 Norte 17 Norte 0 814.7 1.1 86
2019-09-22 23:00:00 6.6 12 Noroeste 22 Norte 0 814.6 1.4 85
2019-09-22 22:00:00 6.7 12 Norte 26 Noroeste 0 814.2 1 85
2019-09-22 21:00:00 7.1 13 Norte 24 Noroeste 0 813.6 0.6 85
2019-09-22 20:00:00 7.8 10 Noroeste 27 Noroeste 0 813.2 0.5 81
2019-09-22 19:00:00 10 14 Noroeste 27 Noroeste 0 813.2 0.7 74
2019-09-22 18:00:00 10.2 8 Noroeste 28 Norte 0 813 0.9 78
2019-09-22 17:00:00 9.7 12 Noroeste 29 Noroeste 0 812.7 0.4 84
2019-09-22 16:00:00 11 14 Norte 31 Norte 0 812.5 0.5 75
2019-09-22 15:00:00 11.2 10 Norte 29 Norte 0 812.1 0.3 80
2019-09-22 14:00:00 9.3 10 Norte 24 Norte 0 812.3 0.9 92
2019-09-22 13:00:00 8.9 6 Norte 21 Nordeste 0 812 0.9 91
2019-09-22 12:00:00 8.5 9 Norte 17 Noroeste 0 811.8 1.2 95
2019-09-22 11:00:00 8.3 6 Norte 18 Norte 0.2 811.4 1.2 94
2019-09-22 10:00:00 8 4 Nordeste 14 Este 0 811.1 1.3 94
2019-09-22 09:00:00 7.7 6 Este 13 Nordeste 0.2 810.6 1 93
2019-09-22 08:00:00 7.8 4 Norte 21 Norte 1.2 810.2 0.4 94
2019-09-22 07:00:00 8.2 8 Noroeste 28 Sudoeste 1.2 809.8 -0.2 92
2019-09-22 06:00:00 10.3 14 Oeste 45 Sudoeste 0.4 809.6 -0.5 94
2019-09-22 05:00:00 10.6 12 Sudoeste 40 Sudoeste 0.2 809.8 -0.3 94
2019-09-22 04:00:00 10.6 14 Sudoeste 48 Sur 1.6 810 -0.2 95
2019-09-22 03:00:00 10.6 21 Sur 48 Sudoeste 1.8 810.1 -0.4 95
2019-09-22 02:00:00 10.5 28 Sur 58 Sur 0.6 810.1 -0.1 95
2019-09-22 01:00:00 10.7 32 Sur 57 Sur 0.4 810.2 -0.3 95
2019-09-22 00:00:00 10.2 29 Sur 58 Sur 0.2 810.5 0.3 95
2019-09-21 23:00:00 9.8 39 Sur 63 Sur 0.6 810.2 -0.1 95
2019-09-21 22:00:00 9.9 40 Sudoeste 60 Sudoeste 0.2 810.5 0.1 95
2019-09-21 21:00:00 10.1 33 Sudoeste 58 Sudoeste 2.8 810.2 -0.1 94
2019-09-21 20:00:00 10.5 34 Sudoeste 51 Sudoeste 1.8 810.3 -0.1 95
2019-09-21 19:00:00 10.8 23 Sudoeste 54 Sur 2 810.4 -0.3 95
2019-09-21 18:00:00 10.7 25 Sur 48 Sur 0.6 810.3 -0.5 94
2019-09-21 17:00:00 10.7 22 Sur 51 Sur 0.2 810.4 -0.9 94
2019-09-21 16:00:00 10.3 18 Sudoeste 53 Sudoeste 1 810.7 -0.7 94
2019-09-21 15:00:00 10 25 Sudoeste 41 Sur 1 810.8 -0.8 94
2019-09-21 14:00:00 10.3 22 Sur 47 Sudoeste 0.2 811.3 0 93
2019-09-21 13:00:00 10.4 26 Sudoeste 41 Sudoeste 0 811.4 0.8 91
2019-09-21 12:00:00 10 23 Sur 42 Sudoeste 0 811.6 0.9 92
2019-09-21 11:00:00 9.8 27 Sudoeste 50 Sur 0 811.3 0.5 93
2019-09-21 10:00:00 9 32 Sudoeste 48 Sudoeste 0 810.6 0.2 94
2019-09-21 09:00:00 8.9 24 Sudoeste 39 Sudoeste 0 810.7 0.1 93
2019-09-21 08:00:00 8.8 18 Sudoeste 51 Sudoeste 0 810.8 -0.2 91
2019-09-21 07:00:00 8.7 37 Sudoeste 56 Sur 0 810.4 -0.8 93
2019-09-21 06:00:00 9.3 22 Sudoeste 43 Sudoeste 0 810.6 -0.8 92
2019-09-21 05:00:00 9.6 26 Sudoeste 40 Sudoeste 0 811 -0.7 92
2019-09-21 04:00:00 10.1 24 Sur 48 Sudoeste 0 811.2 -0.2 92
2019-09-21 03:00:00 10.7 20 Sur 48 Sur 0.2 811.4 -0.6 93
2019-09-21 02:00:00 11.2 18 Sur 54 Sur 0.4 811.7 -0.6 93
2019-09-21 01:00:00 11.4 19 Sur 54 Sur 0 811.4 -0.8 94
2019-09-21 00:00:00 11.2 22 Sur 46 Sur 0 812 -0.7 93
2019-09-20 23:00:00 10.5 23 Sur 54 Sur 0 812.3 -0.2 90
2019-09-20 22:00:00 12.3 19 Sur 49 Sur 0 812.2 0.1 91
2019-09-20 21:00:00 12.2 11 Sur 64 Sudoeste 13 812.7 0.2 93
2019-09-20 20:00:00 12.5 19 Sudeste 41 Sur 6.4 812.5 -0.4 87
2019-09-20 19:00:00 13.7 22 Sudeste 47 Sudeste 0 812.1 -1.2 80
2019-09-20 18:00:00 14.5 19 Sudeste 50 Sudeste 0 812.5 -1.2 76
2019-09-20 17:00:00 15.1 27 Sudeste 54 Sur 0 812.9 -1.1 75
2019-09-20 16:00:00 15.3 31 Sudeste 54 Sudeste 0 813.3 -0.9 73
2019-09-20 15:00:00 14.7 28 Sudeste 46 Sur 0 813.7 -0.6 77
2019-09-20 14:00:00 14.8 25 Sudeste 45 Sudeste 0 814 -0.3 75
2019-09-20 13:00:00 15 18 Sudeste 36 Sudeste 0 814.2 0 73
2019-09-20 12:00:00 15.4 22 Sudeste 43 Sudeste 0 814.3 0.3 73
2019-09-20 11:00:00 13.3 15 Sudeste 47 Sudeste 0 814.3 0.4 73
2019-09-20 10:00:00 12.9 22 Sudeste 44 Sudeste 0 814.2 0.4 70
2019-09-20 09:00:00 12.8 26 Sudeste 47 Sur 0 814 0.1 76
2019-09-20 08:00:00 12.8 26 Sudeste 46 Sur 0 813.9 -0.2 78
2019-09-20 07:00:00 13 25 Sudeste 39 Sudeste 0 813.8 -0.8 76
2019-09-20 06:00:00 13.1 23 Sudeste 41 Sur 0 813.9 -1.1 77
2019-09-20 05:00:00 13 25 Sudeste 41 Sudeste 0 814.1 -1.2 79
2019-09-20 04:00:00 12.9 27 Sudeste 44 Sudeste 0 814.6 -0.9 81
2019-09-20 03:00:00 13.3 26 Sudeste 45 Sudeste 0 815 -0.8 78
2019-09-20 02:00:00 13.6 17 Sudeste 40 Sudeste 0 815.3 -0.8 78
2019-09-20 01:00:00 13.5 14 Sudeste 26 Sudeste 0 815.5 -0.3 75
2019-09-20 00:00:00 14.1 14 Sudeste 31 Sudeste 0 815.8 0.5 69
2019-09-19 23:00:00 14.5 18 Sudeste 29 Sudeste 0 816.1 1.1 65
2019-09-19 22:00:00 14.7 17 Sudeste 28 Sudeste 0 815.8 0.5 63
2019-09-19 21:00:00 14.7 16 Sur 25 Sur 0 815.3 0.1 64
2019-09-19 20:00:00 14.9 11 Sur 19 Este 0 815 -0.3 66
2019-09-19 19:00:00 14.7 6 Norte 18 Sur 0 815.3 -0.1 71
2019-09-19 18:00:00 15.1 9 Nordeste 20 Noroeste 0 815.2 -0.6 73
2019-09-19 17:00:00 17.1 8 Sur 25 Sudoeste 0 815.3 -0.8 64
2019-09-19 16:00:00 16.7 9 Sudoeste 29 Sur 1.2 815.4 -0.8 69
2019-09-19 15:00:00 19.3 13 Sudoeste 29 Sur 0 815.8 -0.6 50
2019-09-19 14:00:00 17.1 13 Sudoeste 31 Sudoeste 0 816.1 0 56
2019-09-19 13:00:00 19.2 15 Sur 27 Sur 0 816.2 0.3 50
2019-09-19 12:00:00 18.2 13 Sur 29 Sur 0 816.4 0.8 52
2019-09-19 11:00:00 17.6 14 Sudoeste 24 Sudoeste 0 816.1 0.7 52
2019-09-19 10:00:00 15.6 7 Sur 20 Sudoeste 0 815.9 0.7 56
2019-09-19 09:00:00 13.2 11 Sudoeste 19 Sudoeste 0 815.6 0.2 61
2019-09-19 08:00:00 12.8 10 Sur 19 Sudoeste 0 815.4 0 62
2019-09-19 07:00:00 13 12 Sur 18 Sur 0 815.2 -0.5 63
2019-09-19 06:00:00 13.4 7 Sudoeste 9 Sudoeste 0 815.4 -0.7 58
2019-09-19 05:00:00 13.4 7 Sudoeste 13 Sur 0 815.4 -0.8 57
2019-09-19 04:00:00 12.9 10 Sur 16 Sudeste 0 815.7 -0.6 67
2019-09-19 03:00:00 13.3 8 Sur 12 Sudeste 0 816.1 -0.4 65
2019-09-19 02:00:00 13.6 9 Sudeste 12 Sur 0 816.2 -0.3 64
2019-09-19 01:00:00 13.9 4 Sudoeste 4 Sudoeste 0 816.3 -0.1 52
2019-09-19 00:00:00 13.9 4 Noroeste 7 Nordeste 0 816.5 0.3 62
2019-09-18 23:00:00 13.1 6 Nordeste 15 Norte 0 816.5 0.7 65
2019-09-18 22:00:00 13.7 8 Noroeste 12 Noroeste 0 816.4 0.8 61
2019-09-18 21:00:00 14.4 7 Noroeste 14 Noroeste 0 816.2 0.7 57
2019-09-18 20:00:00 16.4 5 Noroeste 17 Noroeste 0 815.8 0.4 47
2019-09-18 19:00:00 17.7 8 Noroeste 19 Oeste 0 815.6 -0.1 45
2019-09-18 18:00:00 17.8 4 Nordeste 21 Norte 0 815.5 -0.3 47
2019-09-18 17:00:00 17.8 5 Noroeste 20 Noroeste 0 815.4 -0.5 44
2019-09-18 16:00:00 16.9 9 Norte 24 Norte 0 815.7 -0.2 49
2019-09-18 15:00:00 17.6 5 Norte 21 Nordeste 0 815.8 0 47
2019-09-18 14:00:00 16.6 4 Este 14 Norte 0 815.9 0.5 56
2019-09-18 13:00:00 17.1 5 Noroeste 18 Norte 0 815.9 0.9 52
2019-09-18 12:00:00 17.6 6 Noroeste 22 Oeste 0 815.8 1.5 48
2019-09-18 11:00:00 15.9 8 Oeste 27 Sudoeste 0 815.4 1.4 50
2019-09-18 10:00:00 12.7 10 Sudoeste 38 Sudoeste 0 815 1.2 64
2019-09-18 09:00:00 12 22 Sudoeste 44 Sudoeste 0 814.3 0.5 63
2019-09-18 08:00:00 11.9 23 Sudoeste 38 Sudoeste 0 814 0.1 58
2019-09-18 07:00:00 10.9 12 Sur 26 Sur 0 813.8 -0.1 72
2019-09-18 06:00:00 11 16 Sur 29 Sur 0 813.8 -0.6 74
2019-09-18 05:00:00 11.8 17 Sur 28 Sur 0 813.9 -1 69
2019-09-18 04:00:00 12.3 16 Sudeste 27 Sudeste 0 813.9 -1.5 64
2019-09-18 03:00:00 11.7 11 Sudeste 21 Sudeste 0 814.4 -1.4 75
2019-09-18 02:00:00 12.1 8 Sudeste 22 Sudeste 0 814.9 -0.9 74
2019-09-18 01:00:00 11.2 3 Sur 10 Oeste 0 815.4 0.3 80
2019-09-18 00:00:00 11.4 8 Oeste 12 Oeste 0 815.8 0.9 78
2019-09-17 23:00:00 12.4 8 Oeste 19 Sur 0 815.8 0.6 75
2019-09-17 22:00:00 12 9 Sudeste 34 Oeste 0 815.1 0 76
2019-09-17 21:00:00 14.5 6 Sudoeste 39 Sudoeste 0 814.9 -0.2 73
2019-09-15 18:00:00 13.3 14 Sudeste 29 Sudeste 0 816.7 -0.5 77
2019-09-15 17:00:00 13.8 10 Sudeste 26 Sur 0 816.7 -0.9 82
2019-09-15 16:00:00 12.1 10 Sur 30 Sudoeste 0 816.9 -0.5 92
2019-09-15 15:00:00 11.7 14 Sur 28 Sudeste 0 817.2 -0.5 96
2019-09-15 14:00:00 10.7 5 Oeste 39 Sur 9.2 817.6 0.1 93
2019-09-15 13:00:00 11.8 20 Sur 51 Sur 0 817.4 0.3 93
2019-09-15 12:00:00 11.8 28 Sudeste 51 Sudeste 0 817.7 1.5 94
2019-09-15 11:00:00 10.9 16 Sudeste 50 Sudeste 0 817.5 0.6 96
2019-09-15 10:00:00 10.6 29 Sudeste 63 Sudeste 0 817.1 0.1 97
2019-09-15 09:00:00 10.3 21 Sudeste 59 Sur 0.4 816.2 -0.8 97
2019-09-15 08:00:00 10.8 21 Sudeste 56 Sudeste 1 816.9 -0.5 98
2019-09-15 07:00:00 10.6 21 Sudeste 51 Sudeste 0.4 817 -0.6 98
2019-09-15 06:00:00 11 14 Sudeste 44 Sudeste 0.6 817 -1.2 98
2019-09-15 05:00:00 11.1 15 Este 35 Sudeste 0.6 817.4 -0.9 98
2019-09-15 04:00:00 10.9 15 Este 40 Sudeste 1.8 817.6 -0.9 99
2019-09-15 03:00:00 11.2 17 Este 38 Este 0 818.2 -0.5 98
2019-09-15 02:00:00 11.2 14 Este 42 Este 0.4 818.3 -0.5 96
2019-09-15 01:00:00 11.2 24 Este 44 Sudeste 0 818.5 -0.5 94
2019-09-15 00:00:00 11 25 Este 53 Este 0 818.7 0.6 92
2019-09-14 23:00:00 10.9 23 Este 50 Este 0 818.8 0 93
2019-09-14 22:00:00 10.7 15 Este 53 Este 0 819 0.9 97
2019-09-14 21:00:00 8.9 24 Este 43 Este 2.6 818.1 0.3 97
2019-09-14 20:00:00 9.7 19 Sudeste 46 Sudeste 0.2 818.8 0.5 88
2019-09-14 19:00:00 9.6 23 Sudeste 58 Este 0 818.1 0 91
2019-09-14 18:00:00 9.3 30 Este 64 Este 0.4 817.8 -0.2 97
2019-09-14 17:00:00 9.4 22 Sudeste 67 Este 1.2 818.3 -1.3 98
2019-09-14 16:00:00 11.1 38 Este 68 Este 0 818.1 -1.8 84
2019-09-14 15:00:00 10.7 33 Este 60 Este 1.2 818 -1.5 95
2019-09-14 14:00:00 9.9 28 Sur 57 Sur 1 819.6 -0.1 91
2019-09-14 13:00:00 14.7 16 Sudeste 57 Sudeste 0 819.9 0.1 66
2019-09-14 12:00:00 14.8 27 Sudeste 54 Este 0 819.5 0.1 65
2019-09-14 11:00:00 12.5 25 Este 46 Este 0 819.7 0.4 71
2019-09-14 10:00:00 10.9 8 Este 32 Este 0 819.8 0.4 87
2019-09-14 09:00:00 8.5 18 Este 47 Nordeste 0 819.4 -0.3 93
2019-09-14 08:00:00 9.2 23 Este 48 Nordeste 0 819.3 -0.5 89
2019-09-14 07:00:00 9.2 8 Este 42 Sudeste 0 819.4 -0.8 88
2019-09-14 06:00:00 9.5 13 Sudeste 41 Este 0 819.7 -1.1 86
2019-09-14 05:00:00 9.2 29 Este 47 Este 0 819.8 -1 87
2019-09-14 04:00:00 9.1 15 Este 41 Sudeste 0 820.2 -0.7 96
2019-09-14 03:00:00 9.8 23 Sudeste 40 Este 0 820.8 -0.3 98
2019-09-14 02:00:00 10.1 20 Este 41 Este 0.2 820.8 -0.1 98
2019-09-14 01:00:00 10.4 20 Este 44 Este 0.8 820.9 0.2 96
2019-09-14 00:00:00 10.6 24 Este 59 Este 0 821.1 0.8 92